createdAt,value
2023-02-06T00:01:42.990Z,103620.60
2023-02-06T00:04:11.180Z,103625.80
2023-02-06T00:06:39.432Z,103623.40
2023-02-06T00:09:08.060Z,103625.80
2023-02-06T00:11:36.289Z,103628.20
2023-02-06T00:14:04.550Z,103618.00
2023-02-06T00:16:34.487Z,103622.40
2023-02-06T00:19:03.302Z,103624.20
2023-02-06T00:21:33.252Z,103620.60
2023-02-06T00:24:02.728Z,103618.00
2023-02-06T00:26:31.534Z,103630.80
2023-02-06T00:28:59.656Z,103634.60
2023-02-06T00:31:27.787Z,103633.20
2023-02-06T00:33:55.678Z,103629.80
2023-02-06T00:36:23.665Z,103630.60
2023-02-06T00:38:52.608Z,103628.40
2023-02-06T00:41:20.970Z,103618.40
2023-02-06T00:43:48.792Z,103609.80
2023-02-06T00:46:17.639Z,103607.40
2023-02-06T00:48:45.468Z,103601.00
2023-02-06T00:51:13.327Z,103595.40
2023-02-06T00:53:41.130Z,103592.60
2023-02-06T00:56:08.932Z,103582.40
2023-02-06T00:58:36.817Z,103585.00
2023-02-06T01:01:04.893Z,103585.40
2023-02-06T01:03:32.816Z,103585.60
2023-02-06T01:06:00.901Z,103579.00
2023-02-06T01:08:28.921Z,103572.60
2023-02-06T01:10:56.845Z,103571.00
2023-02-06T01:13:24.789Z,103570.60
2023-02-06T01:15:52.638Z,103578.20
2023-02-06T01:18:20.491Z,103578.80
2023-02-06T01:20:48.410Z,103581.60
2023-02-06T01:23:16.328Z,103575.80
2023-02-06T01:25:45.342Z,103573.60
2023-02-06T01:28:13.177Z,103573.60
2023-02-06T01:30:41.094Z,103571.00
2023-02-06T01:33:09.292Z,103565.80
2023-02-06T01:35:38.097Z,103567.60
2023-02-06T01:38:05.973Z,103564.00
2023-02-06T01:40:33.939Z,103558.40
2023-02-06T01:43:02.126Z,103560.60
2023-02-06T01:45:42.199Z,103559.00
2023-02-06T01:48:17.122Z,103557.60
2023-02-06T01:50:51.332Z,103553.80
2023-02-06T01:53:21.675Z,103558.00
2023-02-06T01:55:52.084Z,103550.40
2023-02-06T01:58:28.155Z,103555.60
2023-02-06T02:00:59.940Z,103545.00
2023-02-06T02:03:31.734Z,103548.60
2023-02-06T02:06:08.890Z,103556.80
2023-02-06T02:08:44.246Z,103550.40
2023-02-06T02:11:21.588Z,103547.20
2023-02-06T02:13:55.108Z,103546.60
2023-02-06T02:16:57.201Z,103543.40
2023-02-06T02:19:49.806Z,103546.20
2023-02-06T02:22:30.744Z,103546.60
2023-02-06T02:25:36.233Z,103545.40
2023-02-06T02:28:25.875Z,103537.40
2023-02-06T02:31:18.046Z,103533.40
2023-02-06T02:34:10.693Z,103549.00
2023-02-06T02:36:51.605Z,103544.40
2023-02-06T02:39:56.084Z,103539.20
2023-02-06T02:43:07.336Z,103541.20
2023-02-06T02:46:15.444Z,103550.60
2023-02-06T02:48:49.209Z,103537.40
2023-02-06T02:51:18.057Z,103535.80
2023-02-06T02:53:46.805Z,103535.60
2023-02-06T02:56:22.903Z,103529.20
2023-02-06T02:59:06.456Z,103525.80
2023-02-06T03:01:56.083Z,103524.40
2023-02-06T03:04:49.325Z,103521.40
2023-02-06T03:07:54.969Z,103519.20
2023-02-06T03:11:13.984Z,103509.40
2023-02-06T03:14:17.415Z,103507.60
2023-02-06T03:16:54.516Z,103513.80
2023-02-06T03:19:34.486Z,103514.40
2023-02-06T03:22:05.295Z,103501.00
2023-02-06T03:24:39.191Z,103497.40
2023-02-06T03:27:14.602Z,103494.00
2023-02-06T03:29:45.014Z,103484.40
2023-02-06T03:32:36.444Z,103481.00
2023-02-06T03:35:16.537Z,103475.40
2023-02-06T03:37:46.660Z,103474.20
2023-02-06T03:40:16.202Z,103483.00
2023-02-06T03:42:58.821Z,103469.20
2023-02-06T03:45:49.318Z,103464.40
2023-02-06T03:48:25.060Z,103478.80
2023-02-06T03:50:56.191Z,103475.60
2023-02-06T03:53:26.365Z,103473.20
2023-02-06T03:56:02.292Z,103465.80
2023-02-06T03:58:30.919Z,103467.20
2023-02-06T04:01:02.444Z,103466.60
2023-02-06T04:03:31.064Z,103472.00
2023-02-06T04:05:59.877Z,103467.40
2023-02-06T04:08:27.760Z,103468.20
2023-02-06T04:10:55.539Z,103471.00
2023-02-06T04:13:23.380Z,103471.40
2023-02-06T04:15:51.576Z,103471.80
2023-02-06T04:18:19.397Z,103468.40
2023-02-06T04:20:47.256Z,103466.00
2023-02-06T04:23:15.109Z,103469.40
2023-02-06T04:25:42.872Z,103473.40
2023-02-06T04:28:10.801Z,103477.60
2023-02-06T04:30:38.720Z,103481.20
2023-02-06T04:33:06.492Z,103485.20
2023-02-06T04:35:34.702Z,103489.60
2023-02-06T04:38:02.751Z,103486.60
2023-02-06T04:40:30.795Z,103483.00
2023-02-06T04:42:58.694Z,103482.20
2023-02-06T04:45:26.515Z,103478.60
2023-02-06T04:47:54.346Z,103479.60
2023-02-06T04:50:22.164Z,103476.00
2023-02-06T04:52:50.049Z,103471.00
2023-02-06T04:55:17.819Z,103468.40
2023-02-06T04:57:45.607Z,103474.00
2023-02-06T05:00:14.640Z,103471.80
2023-02-06T05:02:42.613Z,103466.40
2023-02-06T05:05:10.761Z,103463.80
2023-02-06T05:07:38.584Z,103466.00
2023-02-06T05:10:08.927Z,103467.20
2023-02-06T05:12:36.999Z,103478.20
2023-02-06T05:15:05.248Z,103477.60
2023-02-06T05:17:33.137Z,103475.20
2023-02-06T05:20:01.358Z,103468.60
2023-02-06T05:22:29.281Z,103470.00
2023-02-06T05:24:57.179Z,103467.20
2023-02-06T05:27:25.563Z,103466.60
2023-02-06T05:29:53.399Z,103463.00
2023-02-06T05:32:21.280Z,103464.20
2023-02-06T05:34:49.229Z,103460.20
2023-02-06T05:37:17.101Z,103458.60
2023-02-06T05:39:44.929Z,103450.60
2023-02-06T05:42:12.797Z,103446.80
2023-02-06T05:44:40.583Z,103455.00
2023-02-06T05:47:08.470Z,103450.80
2023-02-06T05:49:36.292Z,103459.00
2023-02-06T05:52:04.645Z,103447.20
2023-02-06T05:54:32.443Z,103435.80
2023-02-06T05:57:00.264Z,103428.80
2023-02-06T05:59:28.129Z,103427.40
2023-02-06T06:01:56.006Z,103432.60
2023-02-06T06:04:23.868Z,103436.40
2023-02-06T06:06:51.954Z,103433.20
2023-02-06T06:09:19.757Z,103429.20
2023-02-06T06:11:47.857Z,103424.20
2023-02-06T06:14:15.673Z,103420.60
2023-02-06T06:16:43.500Z,103415.20
2023-02-06T06:19:11.351Z,103422.00
2023-02-06T06:21:39.172Z,103424.20
2023-02-06T06:24:07.703Z,103423.20
2023-02-06T06:26:36.273Z,103426.00
2023-02-06T06:29:04.390Z,103422.80
2023-02-06T06:31:32.287Z,103432.40
2023-02-06T06:34:00.306Z,103423.00
2023-02-06T06:36:28.205Z,103426.40
2023-02-06T06:38:56.025Z,103424.60
2023-02-06T06:41:23.840Z,103428.00
2023-02-06T06:43:56.061Z,103427.40
2023-02-06T06:46:24.633Z,103433.00
2023-02-06T06:48:53.105Z,103436.40
2023-02-06T06:51:21.621Z,103430.40
2023-02-06T06:53:49.499Z,103419.80
2023-02-06T06:56:17.307Z,103423.60
2023-02-06T06:58:45.207Z,103431.40
2023-02-06T07:01:13.143Z,103413.80
2023-02-06T07:03:44.215Z,103416.40
2023-02-06T07:06:12.760Z,103418.00
2023-02-06T07:08:42.143Z,103416.60
2023-02-06T07:11:12.361Z,103414.80
2023-02-06T07:13:41.688Z,103417.60
2023-02-06T07:16:09.738Z,103417.60
2023-02-06T07:18:39.850Z,103420.60
2023-02-06T07:21:08.894Z,103417.60
2023-02-06T07:23:37.537Z,103419.60
2023-02-06T07:26:05.564Z,103418.60
2023-02-06T07:28:34.378Z,103413.20
2023-02-06T07:31:04.804Z,103406.80
2023-02-06T07:33:33.786Z,103402.60
2023-02-06T07:36:03.973Z,103388.80
2023-02-06T07:38:32.139Z,103387.20
2023-02-06T07:41:03.722Z,103380.00
2023-02-06T07:43:31.821Z,103382.20
2023-02-06T07:46:02.492Z,103374.20
2023-02-06T07:48:31.658Z,103370.00
2023-02-06T07:51:08.997Z,103363.80
2023-02-06T07:53:37.692Z,103364.00
2023-02-06T07:56:17.454Z,103363.20
2023-02-06T07:58:49.882Z,103358.80
2023-02-06T08:01:18.252Z,103357.40
2023-02-06T08:03:46.217Z,103357.60
2023-02-06T08:06:16.180Z,103365.80
2023-02-06T08:08:45.342Z,103369.40
2023-02-06T08:11:19.416Z,103370.80
2023-02-06T08:13:48.573Z,103361.60
2023-02-06T08:16:20.891Z,103368.80
2023-02-06T08:18:48.988Z,103371.80
2023-02-06T08:21:22.004Z,103370.40
2023-02-06T08:23:58.798Z,103371.40
2023-02-06T08:26:29.722Z,103367.60
2023-02-06T08:29:02.131Z,103371.20
2023-02-06T08:31:38.851Z,103372.20
2023-02-06T08:34:10.316Z,103373.80
2023-02-06T08:36:38.533Z,103372.40
2023-02-06T08:39:07.277Z,103383.80
2023-02-06T08:41:38.268Z,103376.60
2023-02-06T08:44:14.496Z,103377.80
2023-02-06T08:46:44.689Z,103378.40
2023-02-06T08:49:19.120Z,103376.80
2023-02-06T08:51:50.206Z,103379.80
2023-02-06T08:54:22.260Z,103372.60
2023-02-06T08:56:51.981Z,103372.80
2023-02-06T08:59:20.515Z,103362.00
2023-02-06T09:01:49.427Z,103358.00
2023-02-06T09:04:17.745Z,103352.80
2023-02-06T09:06:48.963Z,103359.60
2023-02-06T09:09:16.982Z,103361.60
2023-02-06T09:11:44.882Z,103362.80
2023-02-06T09:14:17.940Z,103357.00
2023-02-06T09:16:46.101Z,103363.60
2023-02-06T09:19:14.048Z,103364.60
2023-02-06T09:21:42.331Z,103369.80
2023-02-06T09:24:10.439Z,103371.00
2023-02-06T09:26:58.077Z,103365.40
2023-02-06T09:29:34.272Z,103376.60
2023-02-06T09:32:02.189Z,103376.80
2023-02-06T09:34:30.213Z,103372.40
2023-02-06T09:36:58.514Z,103376.20
2023-02-06T09:39:26.617Z,103373.00
2023-02-06T09:42:03.519Z,103363.40
2023-02-06T09:44:58.368Z,103365.20
2023-02-06T09:47:35.490Z,103363.60
2023-02-06T09:50:45.241Z,103369.20
2023-02-06T09:53:30.482Z,103359.00
2023-02-06T09:56:21.085Z,103361.60
2023-02-06T09:59:22.548Z,103364.80
2023-02-06T10:02:54.121Z,103374.40
2023-02-06T10:05:47.921Z,103370.80
2023-02-06T10:08:40.433Z,103376.80
2023-02-06T10:11:21.522Z,103368.00
2023-02-06T10:13:58.246Z,103371.60
2023-02-06T10:17:12.002Z,103366.40
2023-02-06T10:19:49.516Z,103368.80
2023-02-06T10:22:38.524Z,103365.60
2023-02-06T10:25:18.719Z,103368.00
2023-02-06T10:27:54.650Z,103375.60
2023-02-06T10:30:55.344Z,103369.80
2023-02-06T10:33:42.345Z,103370.00
2023-02-06T10:37:02.176Z,103369.40
2023-02-06T10:39:56.302Z,103361.60
2023-02-06T10:42:43.507Z,103359.00
2023-02-06T10:45:23.252Z,103350.80
2023-02-06T10:48:04.403Z,103349.00
2023-02-06T10:50:56.520Z,103343.80
2023-02-06T10:53:33.949Z,103344.60
2023-02-06T10:56:09.443Z,103347.80
2023-02-06T10:58:44.713Z,103340.40
2023-02-06T11:01:25.408Z,103335.60
2023-02-06T11:04:17.482Z,103341.80
2023-02-06T11:06:46.935Z,103341.00
2023-02-06T11:09:15.908Z,103338.60
2023-02-06T11:11:52.008Z,103339.20
2023-02-06T11:14:27.780Z,103338.20
2023-02-06T11:16:59.597Z,103333.60
2023-02-06T11:19:42.474Z,103327.20
2023-02-06T11:22:26.227Z,103318.80
2023-02-06T11:25:07.920Z,103319.20
2023-02-06T11:27:36.440Z,103320.40
2023-02-06T11:30:24.922Z,103310.20
2023-02-06T11:33:23.074Z,103306.80
2023-02-06T11:36:02.248Z,103298.60
2023-02-06T11:38:32.654Z,103302.60
2023-02-06T11:41:16.515Z,103301.60
2023-02-06T11:43:44.275Z,103295.80
2023-02-06T11:46:17.049Z,103282.00
2023-02-06T11:49:01.392Z,103282.80
2023-02-06T11:52:28.009Z,103285.20
2023-02-06T11:55:01.754Z,103278.40
2023-02-06T11:57:35.643Z,103266.20
2023-02-06T12:00:23.158Z,103267.80
2023-02-06T12:02:54.197Z,103261.40
2023-02-06T12:05:28.699Z,103255.40
2023-02-06T12:08:04.328Z,103249.00
2023-02-06T12:10:39.474Z,103246.00
2023-02-06T12:13:20.134Z,103241.60
2023-02-06T12:15:53.630Z,103236.60
2023-02-06T12:18:36.196Z,103229.40
2023-02-06T12:21:28.731Z,103217.60
2023-02-06T12:24:02.268Z,103213.80
2023-02-06T12:26:33.761Z,103211.80
2023-02-06T12:29:12.689Z,103210.60
2023-02-06T12:31:57.582Z,103210.00
2023-02-06T12:34:41.781Z,103199.00
2023-02-06T12:37:21.372Z,103193.00
2023-02-06T12:39:52.101Z,103187.80
2023-02-06T12:42:29.118Z,103185.00
2023-02-06T12:45:16.428Z,103178.60
2023-02-06T12:47:57.841Z,103168.40
2023-02-06T12:50:33.258Z,103174.80
2023-02-06T12:53:13.725Z,103169.20
2023-02-06T12:55:51.033Z,103167.20
2023-02-06T12:58:29.300Z,103159.60
2023-02-06T13:01:37.127Z,103155.20
2023-02-06T13:04:18.664Z,103154.80
2023-02-06T13:06:52.788Z,103144.60
2023-02-06T13:09:37.005Z,103142.20
2023-02-06T13:12:21.853Z,103144.80
2023-02-06T13:15:04.438Z,103137.20
2023-02-06T13:17:38.536Z,103139.00
2023-02-06T13:20:15.773Z,103133.60
2023-02-06T13:23:23.269Z,103136.00
2023-02-06T13:25:51.241Z,103135.80
2023-02-06T13:28:22.301Z,103132.60
2023-02-06T13:31:04.781Z,103127.20
2023-02-06T13:33:47.993Z,103127.80
2023-02-06T13:36:49.116Z,103115.00
2023-02-06T13:39:30.847Z,103113.80
2023-02-06T13:42:31.808Z,103109.20
2023-02-06T13:45:05.158Z,103113.00
2023-02-06T13:48:06.224Z,103103.40
2023-02-06T13:51:06.934Z,103107.20
2023-02-06T13:53:46.443Z,103106.60
2023-02-06T13:56:42.021Z,103102.00
2023-02-06T13:59:27.536Z,103095.40
2023-02-06T14:01:56.407Z,103096.20
2023-02-06T14:04:28.639Z,103097.40
2023-02-06T14:07:34.016Z,103095.40
2023-02-06T14:10:35.515Z,103093.40
2023-02-06T14:13:24.134Z,103092.80
2023-02-06T14:16:13.933Z,103090.20
2023-02-06T14:19:08.810Z,103081.80
2023-02-06T14:22:38.297Z,103080.60
2023-02-06T14:25:55.328Z,103074.20
2023-02-06T14:29:01.425Z,103072.40
2023-02-06T14:32:03.243Z,103073.60
2023-02-06T14:34:50.901Z,103067.60
2023-02-06T14:38:06.286Z,103063.60
2023-02-06T14:40:42.565Z,103064.40
2023-02-06T14:43:20.905Z,103062.20
2023-02-06T14:46:06.222Z,103059.80
2023-02-06T14:48:47.076Z,103061.60
2023-02-06T14:51:36.355Z,103057.40
2023-02-06T14:54:26.000Z,103056.20
2023-02-06T14:57:04.396Z,103058.40
2023-02-06T14:59:32.803Z,103062.80
2023-02-06T15:02:14.335Z,103062.40
2023-02-06T15:04:47.509Z,103052.00
2023-02-06T15:07:31.405Z,103046.40
2023-02-06T15:10:14.480Z,103045.80
2023-02-06T15:12:52.485Z,103046.00
2023-02-06T15:15:28.111Z,103052.60
2023-02-06T15:18:04.694Z,103053.60
2023-02-06T15:20:42.515Z,103045.80
2023-02-06T15:23:55.378Z,103034.60
2023-02-06T15:26:39.474Z,103037.80
2023-02-06T15:29:19.549Z,103033.60
2023-02-06T15:31:50.702Z,103028.60
2023-02-06T15:34:22.679Z,103031.40
2023-02-06T15:36:51.509Z,103028.80
2023-02-06T15:39:19.699Z,103027.20
2023-02-06T15:41:51.737Z,103027.80
2023-02-06T15:44:26.521Z,103022.80
2023-02-06T15:46:56.272Z,103022.40
2023-02-06T15:49:50.164Z,103021.00
2023-02-06T15:52:54.478Z,103026.20
2023-02-06T15:55:31.277Z,103019.80
2023-02-06T15:58:03.729Z,103021.00
2023-02-06T16:00:37.773Z,103018.20
2023-02-06T16:03:16.469Z,103012.20
2023-02-06T16:05:45.217Z,103012.20
2023-02-06T16:08:27.805Z,103010.80
2023-02-06T16:11:27.479Z,103004.60
2023-02-06T16:13:55.728Z,103004.20
2023-02-06T16:16:27.503Z,103003.40
2023-02-06T16:18:58.558Z,103006.80
2023-02-06T16:21:31.708Z,103002.00
2023-02-06T16:24:06.795Z,103002.80
2023-02-06T16:26:47.126Z,103004.20
2023-02-06T16:29:28.539Z,103010.20
2023-02-06T16:32:14.671Z,103012.80
2023-02-06T16:34:45.920Z,103012.60
2023-02-06T16:37:25.777Z,103012.60
2023-02-06T16:39:55.146Z,103011.60
2023-02-06T16:42:32.255Z,103000.80
2023-02-06T16:45:18.551Z,102998.40
2023-02-06T16:47:47.176Z,102999.60
2023-02-06T16:50:15.898Z,102998.80
2023-02-06T16:52:53.395Z,103001.60
2023-02-06T16:55:26.261Z,103002.60
2023-02-06T16:57:59.347Z,103005.20
2023-02-06T17:00:33.889Z,103004.40
2023-02-06T17:03:01.977Z,103004.00
2023-02-06T17:05:31.543Z,103004.60
2023-02-06T17:08:01.683Z,103005.80
2023-02-06T17:10:29.901Z,103003.20
2023-02-06T17:12:57.840Z,103006.40
2023-02-06T17:15:25.761Z,103012.80
2023-02-06T17:17:54.840Z,103012.80
2023-02-06T17:20:35.221Z,103004.80
2023-02-06T17:23:04.862Z,103006.20
2023-02-06T17:25:33.204Z,103001.80
2023-02-06T17:28:01.847Z,103005.60
2023-02-06T17:30:30.059Z,103005.20
2023-02-06T17:32:57.962Z,103010.00
2023-02-06T17:35:26.287Z,103010.00
2023-02-06T17:37:54.519Z,103008.60
2023-02-06T17:40:27.958Z,103011.40
2023-02-06T17:42:58.114Z,103014.40
2023-02-06T17:45:26.537Z,103008.00
2023-02-06T17:47:54.610Z,103011.40
2023-02-06T17:50:25.503Z,103008.00
2023-02-06T17:52:55.568Z,103006.00
2023-02-06T17:55:24.582Z,103009.40
2023-02-06T17:57:53.729Z,103010.40
2023-02-06T18:00:23.726Z,103008.20
2023-02-06T18:02:54.182Z,103011.80
2023-02-06T18:05:23.694Z,103008.60
2023-02-06T18:07:52.141Z,103011.40
2023-02-06T18:10:24.109Z,103011.80
2023-02-06T18:12:52.456Z,103009.40
2023-02-06T18:15:20.586Z,103010.20
2023-02-06T18:17:48.387Z,103012.20
2023-02-06T18:20:16.940Z,103011.60
2023-02-06T18:22:44.913Z,103009.80
2023-02-06T18:25:15.051Z,103008.60
2023-02-06T18:27:45.852Z,103003.40
2023-02-06T18:30:15.580Z,103002.80
2023-02-06T18:32:43.462Z,102996.40
2023-02-06T18:35:11.505Z,102991.60
2023-02-06T18:37:39.284Z,102990.00
2023-02-06T18:40:07.935Z,102990.80
2023-02-06T18:42:51.032Z,102984.20
2023-02-06T18:45:21.648Z,102980.60
2023-02-06T18:47:51.450Z,102982.80
2023-02-06T18:50:21.858Z,102986.60
2023-02-06T18:52:50.153Z,102985.40
2023-02-06T18:55:18.477Z,102988.60
2023-02-06T18:57:46.600Z,102987.80
2023-02-06T19:00:18.833Z,102981.80
2023-02-06T19:02:47.333Z,102977.80
2023-02-06T19:05:15.881Z,102974.80
2023-02-06T19:07:48.545Z,102974.60
2023-02-06T19:10:17.057Z,102982.20
2023-02-06T19:12:45.795Z,102990.40
2023-02-06T19:15:15.647Z,102994.00
2023-02-06T19:17:43.953Z,102992.60
2023-02-06T19:20:12.724Z,102989.20
2023-02-06T19:22:40.554Z,102994.60
2023-02-06T19:25:14.245Z,103001.40
2023-02-06T19:27:42.553Z,102993.60
2023-02-06T19:30:13.092Z,102994.40
2023-02-06T19:32:41.679Z,102987.60
2023-02-06T19:35:09.652Z,102994.80
2023-02-06T19:37:37.528Z,102992.60
2023-02-06T19:40:06.786Z,102992.40
2023-02-06T19:42:34.970Z,103002.40
2023-02-06T19:45:04.209Z,103002.60
2023-02-06T19:47:32.013Z,103006.20
2023-02-06T19:49:59.802Z,103006.40
2023-02-06T19:52:28.604Z,103010.00
2023-02-06T19:54:56.484Z,103008.60
2023-02-06T19:57:24.455Z,103013.80
2023-02-06T19:59:52.288Z,103012.40
2023-02-06T20:02:20.101Z,103021.40
2023-02-06T20:04:47.931Z,103028.60
2023-02-06T20:07:15.852Z,103041.00
2023-02-06T20:09:43.713Z,103043.80
2023-02-06T20:12:15.130Z,103043.60
2023-02-06T20:14:42.907Z,103033.40
2023-02-06T20:17:10.702Z,103039.00
2023-02-06T20:19:38.573Z,103041.40
2023-02-06T20:22:06.489Z,103034.60
2023-02-06T20:24:34.721Z,103033.20
2023-02-06T20:27:07.834Z,103030.20
2023-02-06T20:29:38.958Z,103027.80
2023-02-06T20:32:07.467Z,103024.80
2023-02-06T20:34:36.021Z,103021.60
2023-02-06T20:37:04.608Z,103017.60
2023-02-06T20:39:33.176Z,103022.20
2023-02-06T20:42:01.627Z,103023.20
2023-02-06T20:44:30.921Z,103023.60
2023-02-06T20:46:58.929Z,103017.60
2023-02-06T20:49:28.872Z,103025.00
2023-02-06T20:51:57.318Z,103027.40
2023-02-06T20:54:25.918Z,103025.80
2023-02-06T20:56:53.852Z,103019.60
2023-02-06T20:59:22.300Z,103017.80
2023-02-06T21:01:50.110Z,103023.00
2023-02-06T21:04:19.485Z,103024.40
2023-02-06T21:06:48.565Z,103023.60
2023-02-06T21:09:18.397Z,103026.60
2023-02-06T21:11:50.167Z,103025.60
2023-02-06T21:14:19.518Z,103023.00
2023-02-06T21:16:49.407Z,103014.60
2023-02-06T21:19:20.199Z,103009.20
2023-02-06T21:21:48.747Z,103011.80
2023-02-06T21:24:18.085Z,103003.00
2023-02-06T21:26:46.422Z,103004.00
2023-02-06T21:29:15.967Z,102995.40
2023-02-06T21:31:44.816Z,103001.00
2023-02-06T21:34:21.356Z,103001.40
2023-02-06T21:36:49.980Z,103005.40
2023-02-06T21:39:26.943Z,102992.00
2023-02-06T21:41:55.221Z,102998.40
2023-02-06T21:44:26.352Z,102998.20
2023-02-06T21:46:55.930Z,102999.40
2023-02-06T21:49:25.043Z,102992.40
2023-02-06T21:51:53.391Z,102985.20
2023-02-06T21:54:21.992Z,102981.60
2023-02-06T21:56:49.901Z,102984.00
2023-02-06T21:59:18.215Z,102995.80
2023-02-06T22:01:46.050Z,102989.60
2023-02-06T22:04:13.931Z,102990.80
2023-02-06T22:06:41.861Z,102992.60
2023-02-06T22:09:15.581Z,102993.20
2023-02-06T22:11:43.966Z,102992.40
2023-02-06T22:14:15.999Z,102993.40
2023-02-06T22:16:46.657Z,102993.80
2023-02-06T22:19:16.463Z,102991.00
2023-02-06T22:21:44.872Z,102993.20
2023-02-06T22:24:13.373Z,102989.60
2023-02-06T22:26:41.803Z,102981.20
2023-02-06T22:29:17.768Z,102989.60
2023-02-06T22:31:45.955Z,102987.80
2023-02-06T22:34:20.152Z,102988.40
2023-02-06T22:36:51.036Z,102989.60
2023-02-06T22:39:19.753Z,102989.40
2023-02-06T22:41:48.932Z,102987.80
2023-02-06T22:44:20.419Z,102995.40
2023-02-06T22:46:52.093Z,102997.60
2023-02-06T22:49:22.068Z,102996.40
2023-02-06T22:51:50.366Z,102993.00
2023-02-06T22:54:18.813Z,102990.40
2023-02-06T22:56:46.721Z,102992.80
2023-02-06T22:59:24.836Z,102978.20
2023-02-06T23:01:58.030Z,102981.20
2023-02-06T23:04:36.187Z,102982.60
2023-02-06T23:07:05.102Z,102980.60
2023-02-06T23:09:37.234Z,102983.20
2023-02-06T23:12:06.223Z,102986.20
2023-02-06T23:14:34.036Z,102982.60
2023-02-06T23:17:03.937Z,102982.00
2023-02-06T23:19:31.964Z,102979.60
2023-02-06T23:21:59.764Z,102991.60
2023-02-06T23:24:28.006Z,103001.60
2023-02-06T23:26:55.830Z,102998.40
2023-02-06T23:29:24.300Z,103002.60
2023-02-06T23:31:52.839Z,103002.80
2023-02-06T23:34:24.298Z,103001.00
2023-02-06T23:36:53.090Z,102991.40
2023-02-06T23:39:21.535Z,102985.20
2023-02-06T23:41:49.416Z,102990.40
2023-02-06T23:44:18.059Z,102991.20
2023-02-06T23:46:45.989Z,102990.00
2023-02-06T23:49:14.245Z,102987.40
2023-02-06T23:51:42.268Z,102983.60
2023-02-06T23:54:10.475Z,102980.60
2023-02-06T23:56:38.420Z,102981.60
2023-02-06T23:59:06.845Z,102980.80
